WATT

El Tari Airport

Kupang-Timor Island, Indonesia
TAF WATT 230500Z 2306/2406 28006KT 7000 -RA FEW015CB BKN015 BECMG 2308/2710 8000 NSW BKN015 PROB40 TEMPO 2314/2318 5000 -RA BECMG 2321/2323 5000 -RA FEW015CB BKN015
Issued Valid From Valid To
Jan-23 @ 05:00 UTC
(2 hours ago)
Jan-23 @ 06:00 UTC
(an hour ago)
Jan-24 @ 06:00 UTC
(in 23 hours)
Jan-23 @ 06:00 to Jan-23 @ 08:00
TAF WATT 230500Z 2306/2406 28006KT 7000 -RA FEW015CB BKN015
Wind Visibility Clouds Conditions
280° at 6 knots 7,001 meters
  • Few at 1,500' AGL
  • Broken at 1,500' AGL
  • Light Rain
Becoming Jan-23 @ 08:00 to Jan-23 @ 21:00
BECMG 2308/2710 8000 NSW BKN015
Wind Visibility Clouds Conditions
280° at 6 knots 7,998 meters
  • Broken at 1,500' AGL
Temporary  (Probability 40%) Jan-23 @ 14:00 to Jan-23 @ 18:00
PROB40 TEMPO 2314/2318 5000 -RA
Visibility Conditions
5,005 meters
  • Light Rain
Becoming Jan-23 @ 21:00 to Jan-24 @ 06:00
BECMG 2321/2323 5000 -RA FEW015CB BKN015
Wind Visibility Clouds Conditions
280° at 6 knots 5,005 meters
  • Few at 1,500' AGL
  • Broken at 1,500' AGL
  • Light Rain
TAF WATT 230500Z 2306/2406 28006KT 7000 -RA FEW015CB BKN015 BECMG 2308/2710 8000 NSW BKN015 PROB40 TEMPO 2314/2318 5000 -RA BECMG 2321/2323 5000 -RA FEW015CB BKN015
Issued Jan-23 @ 05:00 UTC
(2 hours ago)
Valid From Jan-23 @ 06:00 UTC
(an hour ago)
Valid To Jan-24 @ 06:00 UTC
(in 23 hours)
Jan-23 @ 06:00 - Jan-23 @ 08:00
Wind Visibility
280° at 6 knots 7,001 meters
Clouds
  • Few at 1,500' AGL
  • Broken at 1,500' AGL
Conditions
  • Light Rain
Becoming Jan-23 @ 08:00 - Jan-23 @ 21:00
Wind Visibility
280° at 6 knots 7,998 meters
Clouds
  • Broken at 1,500' AGL
Conditions
Probability 40% Temporary Jan-23 @ 14:00 - Jan-23 @ 18:00
Conditions
  • Light Rain
Becoming Jan-23 @ 21:00 - Jan-24 @ 06:00
Wind Visibility
280° at 6 knots 5,005 meters
Clouds
  • Few at 1,500' AGL
  • Broken at 1,500' AGL
Conditions
  • Light Rain